sensor_id;sensor_type;location;lat;lon;timestamp;P1;durP1;ratioP1;P2;durP2;ratioP2
52650;SDS011;38537;47.226;39.702;2023-04-01T00:01:02;8.80;;;3.78;;
52650;SDS011;38537;47.226;39.702;2023-04-01T00:03:31;4.07;;;3.28;;
52650;SDS011;38537;47.226;39.702;2023-04-01T00:06:00;6.15;;;3.42;;
52650;SDS011;38537;47.226;39.702;2023-04-01T00:08:29;4.60;;;3.50;;
52650;SDS011;38537;47.226;39.702;2023-04-01T00:10:56;4.80;;;3.30;;
52650;SDS011;38537;47.226;39.702;2023-04-01T00:13:24;4.35;;;3.00;;
52650;SDS011;38537;47.226;39.702;2023-04-01T00:15:53;6.18;;;3.20;;
52650;SDS011;38537;47.226;39.702;2023-04-01T00:18:22;5.28;;;3.33;;
52650;SDS011;38537;47.226;39.702;2023-04-01T00:20:50;4.78;;;2.78;;
52650;SDS011;38537;47.226;39.702;2023-04-01T00:23:19;5.75;;;3.38;;
52650;SDS011;38537;47.226;39.702;2023-04-01T00:25:47;5.63;;;3.10;;
52650;SDS011;38537;47.226;39.702;2023-04-01T00:28:17;4.57;;;3.08;;
52650;SDS011;38537;47.226;39.702;2023-04-01T00:30:46;4.30;;;3.25;;
52650;SDS011;38537;47.226;39.702;2023-04-01T00:33:13;4.60;;;3.03;;
52650;SDS011;38537;47.226;39.702;2023-04-01T00:35:42;5.93;;;3.40;;
52650;SDS011;38537;47.226;39.702;2023-04-01T00:38:11;5.82;;;3.58;;
52650;SDS011;38537;47.226;39.702;2023-04-01T00:40:40;4.40;;;2.95;;
52650;SDS011;38537;47.226;39.702;2023-04-01T00:43:16;6.75;;;3.22;;
52650;SDS011;38537;47.226;39.702;2023-04-01T00:45:48;4.38;;;3.28;;
52650;SDS011;38537;47.226;39.702;2023-04-01T00:48:34;4.80;;;3.38;;
52650;SDS011;38537;47.226;39.702;2023-04-01T00:53:45;6.45;;;3.80;;
52650;SDS011;38537;47.226;39.702;2023-04-01T00:56:16;4.25;;;3.42;;
52650;SDS011;38537;47.226;39.702;2023-04-01T00:58:51;5.95;;;3.25;;
52650;SDS011;38537;47.226;39.702;2023-04-01T01:01:25;7.75;;;4.35;;
52650;SDS011;38537;47.226;39.702;2023-04-01T01:03:54;6.03;;;4.57;;
52650;SDS011;38537;47.226;39.702;2023-04-01T01:06:32;7.30;;;4.10;;
52650;SDS011;38537;47.226;39.702;2023-04-01T01:09:52;5.57;;;3.45;;
52650;SDS011;38537;47.226;39.702;2023-04-01T01:12:35;5.78;;;3.35;;
52650;SDS011;38537;47.226;39.702;2023-04-01T01:15:11;8.75;;;4.15;;
52650;SDS011;38537;47.226;39.702;2023-04-01T01:18:11;6.83;;;3.20;;
52650;SDS011;38537;47.226;39.702;2023-04-01T01:35:07;5.07;;;3.00;;
52650;SDS011;38537;47.226;39.702;2023-04-01T01:37:19;5.10;;;2.80;;
52650;SDS011;38537;47.226;39.702;2023-04-01T01:39:51;5.90;;;2.67;;
52650;SDS011;38537;47.226;39.702;2023-04-01T01:42:22;4.82;;;2.85;;
52650;SDS011;38537;47.226;39.702;2023-04-01T01:44:53;4.32;;;2.80;;
52650;SDS011;38537;47.226;39.702;2023-04-01T01:47:22;4.57;;;3.13;;
52650;SDS011;38537;47.226;39.702;2023-04-01T01:49:52;3.47;;;2.70;;
52650;SDS011;38537;47.226;39.702;2023-04-01T01:52:22;6.13;;;2.88;;
52650;SDS011;38537;47.226;39.702;2023-04-01T01:54:54;6.50;;;3.20;;
52650;SDS011;38537;47.226;39.702;2023-04-01T01:57:26;3.28;;;2.72;;
52650;SDS011;38537;47.226;39.702;2023-04-01T02:00:07;5.10;;;3.10;;
52650;SDS011;38537;47.226;39.702;2023-04-01T02:02:43;5.80;;;2.75;;
52650;SDS011;38537;47.226;39.702;2023-04-01T02:05:17;3.85;;;2.80;;
52650;SDS011;38537;47.226;39.702;2023-04-01T02:10:21;4.60;;;2.78;;
52650;SDS011;38537;47.226;39.702;2023-04-01T02:12:51;2.65;;;2.33;;
52650;SDS011;38537;47.226;39.702;2023-04-01T02:15:25;3.90;;;2.75;;
52650;SDS011;38537;47.226;39.702;2023-04-01T02:17:57;3.25;;;2.50;;
52650;SDS011;38537;47.226;39.702;2023-04-01T02:20:25;7.60;;;4.03;;
52650;SDS011;38537;47.226;39.702;2023-04-01T02:22:56;5.45;;;3.08;;
52650;SDS011;38537;47.226;39.702;2023-04-01T02:25:27;5.70;;;3.60;;
52650;SDS011;38537;47.226;39.702;2023-04-01T02:27:57;9.57;;;5.07;;
52650;SDS011;38537;47.226;39.702;2023-04-01T02:30:27;8.88;;;5.15;;
52650;SDS011;38537;47.226;39.702;2023-04-01T02:32:56;9.35;;;4.78;;
52650;SDS011;38537;47.226;39.702;2023-04-01T02:35:25;5.50;;;4.10;;
52650;SDS011;38537;47.226;39.702;2023-04-01T02:37:54;6.68;;;3.65;;
52650;SDS011;38537;47.226;39.702;2023-04-01T02:40:22;4.57;;;3.08;;
52650;SDS011;38537;47.226;39.702;2023-04-01T02:42:49;5.93;;;4.25;;
52650;SDS011;38537;47.226;39.702;2023-04-01T02:45:17;7.13;;;3.45;;
52650;SDS011;38537;47.226;39.702;2023-04-01T02:47:44;5.10;;;3.20;;
52650;SDS011;38537;47.226;39.702;2023-04-01T02:50:12;6.95;;;4.00;;
52650;SDS011;38537;47.226;39.702;2023-04-01T02:52:39;5.15;;;3.40;;
52650;SDS011;38537;47.226;39.702;2023-04-01T02:55:06;5.28;;;3.45;;
52650;SDS011;38537;47.226;39.702;2023-04-01T02:57:34;4.72;;;3.15;;
52650;SDS011;38537;47.226;39.702;2023-04-01T03:00:01;3.97;;;3.10;;
52650;SDS011;38537;47.226;39.702;2023-04-01T03:02:29;3.45;;;2.78;;
52650;SDS011;38537;47.226;39.702;2023-04-01T03:04:57;3.78;;;2.88;;
52650;SDS011;38537;47.226;39.702;2023-04-01T03:07:24;5.90;;;3.90;;
52650;SDS011;38537;47.226;39.702;2023-04-01T03:09:51;4.63;;;3.25;;
52650;SDS011;38537;47.226;39.702;2023-04-01T03:12:19;5.28;;;3.83;;
52650;SDS011;38537;47.226;39.702;2023-04-01T03:14:49;7.60;;;3.88;;
52650;SDS011;38537;47.226;39.702;2023-04-01T03:17:16;11.30;;;3.75;;
52650;SDS011;38537;47.226;39.702;2023-04-01T03:19:44;10.07;;;4.00;;
52650;SDS011;38537;47.226;39.702;2023-04-01T03:22:12;7.60;;;4.07;;
52650;SDS011;38537;47.226;39.702;2023-04-01T03:24:39;8.60;;;4.28;;
52650;SDS011;38537;47.226;39.702;2023-04-01T03:27:06;9.35;;;5.00;;
52650;SDS011;38537;47.226;39.702;2023-04-01T03:29:34;12.80;;;5.22;;
52650;SDS011;38537;47.226;39.702;2023-04-01T03:32:01;5.63;;;3.85;;
52650;SDS011;38537;47.226;39.702;2023-04-01T03:34:28;8.73;;;3.67;;
52650;SDS011;38537;47.226;39.702;2023-04-01T03:36:56;7.85;;;3.70;;
52650;SDS011;38537;47.226;39.702;2023-04-01T03:39:24;12.18;;;4.00;;
52650;SDS011;38537;47.226;39.702;2023-04-01T03:41:52;6.38;;;3.50;;
52650;SDS011;38537;47.226;39.702;2023-04-01T03:44:19;6.57;;;3.22;;
52650;SDS011;38537;47.226;39.702;2023-04-01T03:46:50;7.03;;;3.28;;
52650;SDS011;38537;47.226;39.702;2023-04-01T03:49:17;8.27;;;3.15;;
52650;SDS011;38537;47.226;39.702;2023-04-01T03:51:44;7.97;;;3.55;;
52650;SDS011;38537;47.226;39.702;2023-04-01T03:54:12;5.10;;;3.30;;
52650;SDS011;38537;47.226;39.702;2023-04-01T03:56:40;3.90;;;3.17;;
52650;SDS011;38537;47.226;39.702;2023-04-01T03:59:07;5.90;;;2.90;;
52650;SDS011;38537;47.226;39.702;2023-04-01T04:01:35;5.97;;;3.33;;
52650;SDS011;38537;47.226;39.702;2023-04-01T04:04:02;4.63;;;3.33;;
52650;SDS011;38537;47.226;39.702;2023-04-01T04:06:30;5.03;;;3.20;;
52650;SDS011;38537;47.226;39.702;2023-04-01T04:08:57;6.88;;;3.25;;
52650;SDS011;38537;47.226;39.702;2023-04-01T04:11:25;6.28;;;3.30;;
52650;SDS011;38537;47.226;39.702;2023-04-01T04:13:53;9.63;;;3.80;;
52650;SDS011;38537;47.226;39.702;2023-04-01T04:16:22;6.18;;;3.75;;
52650;SDS011;38537;47.226;39.702;2023-04-01T04:18:55;6.05;;;4.13;;
52650;SDS011;38537;47.226;39.702;2023-04-01T04:21:23;5.72;;;3.63;;
52650;SDS011;38537;47.226;39.702;2023-04-01T04:23:50;7.82;;;3.97;;
52650;SDS011;38537;47.226;39.702;2023-04-01T04:26:19;5.03;;;3.67;;
52650;SDS011;38537;47.226;39.702;2023-04-01T04:28:53;7.50;;;3.53;;
52650;SDS011;38537;47.226;39.702;2023-04-01T04:31:22;4.10;;;3.38;;
52650;SDS011;38537;47.226;39.702;2023-04-01T04:33:54;7.30;;;3.42;;
52650;SDS011;38537;47.226;39.702;2023-04-01T04:36:22;4.68;;;3.30;;
52650;SDS011;38537;47.226;39.702;2023-04-01T04:38:51;4.82;;;3.28;;
52650;SDS011;38537;47.226;39.702;2023-04-01T04:41:19;4.35;;;3.10;;
52650;SDS011;38537;47.226;39.702;2023-04-01T04:43:51;4.55;;;2.80;;
52650;SDS011;38537;47.226;39.702;2023-04-01T04:46:23;4.03;;;2.97;;
52650;SDS011;38537;47.226;39.702;2023-04-01T04:49:05;4.43;;;2.83;;
52650;SDS011;38537;47.226;39.702;2023-04-01T04:51:32;6.53;;;3.88;;
52650;SDS011;38537;47.226;39.702;2023-04-01T04:54:03;4.03;;;2.97;;
52650;SDS011;38537;47.226;39.702;2023-04-01T04:56:44;4.18;;;2.90;;
52650;SDS011;38537;47.226;39.702;2023-04-01T04:59:11;5.72;;;3.20;;
52650;SDS011;38537;47.226;39.702;2023-04-01T05:01:51;4.53;;;3.20;;
52650;SDS011;38537;47.226;39.702;2023-04-01T05:04:20;4.22;;;2.70;;
52650;SDS011;38537;47.226;39.702;2023-04-01T05:06:48;6.75;;;3.13;;
52650;SDS011;38537;47.226;39.702;2023-04-01T05:09:16;5.47;;;3.20;;
52650;SDS011;38537;47.226;39.702;2023-04-01T05:11:45;5.45;;;3.15;;
52650;SDS011;38537;47.226;39.702;2023-04-01T05:14:13;4.30;;;3.03;;
52650;SDS011;38537;47.226;39.702;2023-04-01T05:16:48;7.03;;;4.20;;
52650;SDS011;38537;47.226;39.702;2023-04-01T05:19:20;13.05;;;5.53;;
52650;SDS011;38537;47.226;39.702;2023-04-01T05:21:48;7.40;;;3.72;;
52650;SDS011;38537;47.226;39.702;2023-04-01T05:24:16;7.35;;;3.88;;
52650;SDS011;38537;47.226;39.702;2023-04-01T05:26:43;5.97;;;3.30;;
52650;SDS011;38537;47.226;39.702;2023-04-01T05:29:11;6.28;;;2.97;;
52650;SDS011;38537;47.226;39.702;2023-04-01T05:31:39;5.80;;;2.70;;
52650;SDS011;38537;47.226;39.702;2023-04-01T05:34:06;5.30;;;3.03;;
52650;SDS011;38537;47.226;39.702;2023-04-01T05:36:34;4.60;;;2.95;;
52650;SDS011;38537;47.226;39.702;2023-04-01T05:39:02;4.93;;;2.72;;
52650;SDS011;38537;47.226;39.702;2023-04-01T05:41:30;6.35;;;2.92;;
52650;SDS011;38537;47.226;39.702;2023-04-01T05:43:58;5.93;;;3.17;;
52650;SDS011;38537;47.226;39.702;2023-04-01T05:46:51;4.13;;;2.50;;
52650;SDS011;38537;47.226;39.702;2023-04-01T05:49:21;3.33;;;2.75;;
52650;SDS011;38537;47.226;39.702;2023-04-01T05:51:49;4.07;;;2.65;;
52650;SDS011;38537;47.226;39.702;2023-04-01T05:54:18;3.42;;;2.67;;
52650;SDS011;38537;47.226;39.702;2023-04-01T05:56:46;2.65;;;2.30;;
52650;SDS011;38537;47.226;39.702;2023-04-01T05:59:14;3.30;;;2.00;;
52650;SDS011;38537;47.226;39.702;2023-04-01T06:01:41;3.95;;;2.28;;
52650;SDS011;38537;47.226;39.702;2023-04-01T06:04:16;2.38;;;1.90;;
52650;SDS011;38537;47.226;39.702;2023-04-01T06:06:45;2.47;;;1.77;;
52650;SDS011;38537;47.226;39.702;2023-04-01T06:09:14;4.95;;;1.80;;
52650;SDS011;38537;47.226;39.702;2023-04-01T06:14:50;4.28;;;1.98;;
52650;SDS011;38537;47.226;39.702;2023-04-01T06:19:59;4.35;;;2.20;;
52650;SDS011;38537;47.226;39.702;2023-04-01T06:25:13;3.08;;;1.80;;
52650;SDS011;38537;47.226;39.702;2023-04-01T06:42:28;4.70;;;2.22;;
52650;SDS011;38537;47.226;39.702;2023-04-01T06:53:51;3.28;;;1.40;;
52650;SDS011;38537;47.226;39.702;2023-04-01T07:00:19;3.65;;;1.45;;
52650;SDS011;38537;47.226;39.702;2023-04-01T07:02:56;2.08;;;1.27;;
52650;SDS011;38537;47.226;39.702;2023-04-01T07:05:33;1.88;;;1.40;;
52650;SDS011;38537;47.226;39.702;2023-04-01T07:08:04;6.05;;;1.38;;
52650;SDS011;38537;47.226;39.702;2023-04-01T07:13:25;3.40;;;1.30;;
52650;SDS011;38537;47.226;39.702;2023-04-01T07:19:01;2.45;;;1.50;;
52650;SDS011;38537;47.226;39.702;2023-04-01T07:21:53;1.48;;;1.20;;
52650;SDS011;38537;47.226;39.702;2023-04-01T07:24:39;2.60;;;1.40;;
52650;SDS011;38537;47.226;39.702;2023-04-01T07:29:39;3.20;;;1.30;;
52650;SDS011;38537;47.226;39.702;2023-04-01T07:37:39;4.20;;;1.75;;
52650;SDS011;38537;47.226;39.702;2023-04-01T07:40:21;3.55;;;1.80;;
52650;SDS011;38537;47.226;39.702;2023-04-01T07:56:41;4.30;;;1.65;;
52650;SDS011;38537;47.226;39.702;2023-04-01T08:05:28;3.25;;;1.70;;
52650;SDS011;38537;47.226;39.702;2023-04-01T08:11:08;2.05;;;1.38;;
52650;SDS011;38537;47.226;39.702;2023-04-01T08:14:08;2.60;;;1.33;;
52650;SDS011;38537;47.226;39.702;2023-04-01T08:25:23;3.40;;;1.90;;
52650;SDS011;38537;47.226;39.702;2023-04-01T08:27:57;2.05;;;1.80;;
52650;SDS011;38537;47.226;39.702;2023-04-01T08:30:43;3.97;;;1.70;;
52650;SDS011;38537;47.226;39.702;2023-04-01T08:33:29;3.25;;;1.45;;
52650;SDS011;38537;47.226;39.702;2023-04-01T08:36:16;3.65;;;1.60;;
52650;SDS011;38537;47.226;39.702;2023-04-01T08:39:21;3.10;;;1.73;;
52650;SDS011;38537;47.226;39.702;2023-04-01T08:45:26;1.67;;;1.27;;
52650;SDS011;38537;47.226;39.702;2023-04-01T08:48:22;2.10;;;1.20;;
52650;SDS011;38537;47.226;39.702;2023-04-01T08:56:22;2.10;;;1.20;;
52650;SDS011;38537;47.226;39.702;2023-04-01T09:02:17;2.17;;;1.25;;
52650;SDS011;38537;47.226;39.702;2023-04-01T09:48:40;1.42;;;1.20;;
52650;SDS011;38537;47.226;39.702;2023-04-01T10:19:12;3.08;;;1.80;;
52650;SDS011;38537;47.226;39.702;2023-04-01T10:27:24;2.65;;;1.60;;
52650;SDS011;38537;47.226;39.702;2023-04-01T11:21:46;4.35;;;1.92;;
52650;SDS011;38537;47.226;39.702;2023-04-01T11:30:38;4.00;;;2.80;;
52650;SDS011;38537;47.226;39.702;2023-04-01T11:33:24;2.40;;;2.20;;
52650;SDS011;38537;47.226;39.702;2023-04-01T11:53:10;2.92;;;2.50;;
52650;SDS011;38537;47.226;39.702;2023-04-01T11:56:07;4.28;;;2.83;;
52650;SDS011;38537;47.226;39.702;2023-04-01T12:09:42;3.70;;;2.47;;
52650;SDS011;38537;47.226;39.702;2023-04-01T12:18:27;2.92;;;1.90;;
52650;SDS011;38537;47.226;39.702;2023-04-01T12:21:17;3.20;;;2.20;;
52650;SDS011;38537;47.226;39.702;2023-04-01T12:37:39;4.72;;;2.15;;
52650;SDS011;38537;47.226;39.702;2023-04-01T12:42:40;3.78;;;1.77;;
52650;SDS011;38537;47.226;39.702;2023-04-01T13:13:15;2.10;;;1.63;;
52650;SDS011;38537;47.226;39.702;2023-04-01T13:15:58;3.08;;;2.40;;
52650;SDS011;38537;47.226;39.702;2023-04-01T13:18:57;2.67;;;2.30;;
52650;SDS011;38537;47.226;39.702;2023-04-01T13:21:40;2.00;;;1.80;;
52650;SDS011;38537;47.226;39.702;2023-04-01T13:29:43;4.60;;;1.80;;
52650;SDS011;38537;47.226;39.702;2023-04-01T13:32:22;2.22;;;1.77;;
52650;SDS011;38537;47.226;39.702;2023-04-01T13:40:51;2.53;;;1.60;;
52650;SDS011;38537;47.226;39.702;2023-04-01T13:43:34;2.03;;;1.60;;
52650;SDS011;38537;47.226;39.702;2023-04-01T13:51:41;2.10;;;1.90;;
52650;SDS011;38537;47.226;39.702;2023-04-01T14:03:39;2.67;;;1.92;;
52650;SDS011;38537;47.226;39.702;2023-04-01T14:25:47;3.53;;;2.22;;
52650;SDS011;38537;47.226;39.702;2023-04-01T14:28:33;3.17;;;2.55;;
52650;SDS011;38537;47.226;39.702;2023-04-01T14:39:43;2.40;;;1.98;;
52650;SDS011;38537;47.226;39.702;2023-04-01T14:50:45;2.25;;;1.92;;
52650;SDS011;38537;47.226;39.702;2023-04-01T14:55:59;3.72;;;2.20;;
52650;SDS011;38537;47.226;39.702;2023-04-01T14:58:46;2.65;;;1.73;;
52650;SDS011;38537;47.226;39.702;2023-04-01T15:01:20;5.88;;;2.00;;
52650;SDS011;38537;47.226;39.702;2023-04-01T15:10:02;2.75;;;1.90;;
52650;SDS011;38537;47.226;39.702;2023-04-01T15:12:53;3.30;;;2.15;;
52650;SDS011;38537;47.226;39.702;2023-04-01T15:30:20;3.10;;;2.28;;
52650;SDS011;38537;47.226;39.702;2023-04-01T15:35:45;3.83;;;2.30;;
52650;SDS011;38537;47.226;39.702;2023-04-01T15:41:15;6.85;;;2.53;;
52650;SDS011;38537;47.226;39.702;2023-04-01T15:43:47;5.40;;;2.10;;
52650;SDS011;38537;47.226;39.702;2023-04-01T15:49:10;3.80;;;2.33;;
52650;SDS011;38537;47.226;39.702;2023-04-01T16:10:49;14.40;;;4.40;;
52650;SDS011;38537;47.226;39.702;2023-04-01T16:16:21;16.58;;;4.72;;
52650;SDS011;38537;47.226;39.702;2023-04-01T16:21:54;11.98;;;4.53;;
52650;SDS011;38537;47.226;39.702;2023-04-01T16:24:45;13.20;;;4.22;;
52650;SDS011;38537;47.226;39.702;2023-04-01T16:27:20;18.80;;;4.72;;
52650;SDS011;38537;47.226;39.702;2023-04-01T16:32:32;27.20;;;5.68;;
52650;SDS011;38537;47.226;39.702;2023-04-01T16:37:53;12.18;;;5.10;;
52650;SDS011;38537;47.226;39.702;2023-04-01T16:43:19;12.38;;;5.10;;
52650;SDS011;38537;47.226;39.702;2023-04-01T16:51:42;8.88;;;5.28;;
52650;SDS011;38537;47.226;39.702;2023-04-01T16:54:55;19.67;;;5.53;;
52650;SDS011;38537;47.226;39.702;2023-04-01T17:05:40;15.50;;;5.70;;
52650;SDS011;38537;47.226;39.702;2023-04-01T17:08:17;25.05;;;6.40;;
52650;SDS011;38537;47.226;39.702;2023-04-01T17:25:38;13.00;;;6.10;;
52650;SDS011;38537;47.226;39.702;2023-04-01T17:34:18;28.05;;;6.85;;
52650;SDS011;38537;47.226;39.702;2023-04-01T17:40:03;14.27;;;6.25;;
52650;SDS011;38537;47.226;39.702;2023-04-01T17:42:52;20.75;;;7.35;;
52650;SDS011;38537;47.226;39.702;2023-04-01T17:45:49;13.68;;;6.65;;
52650;SDS011;38537;47.226;39.702;2023-04-01T18:00:03;10.25;;;5.78;;
52650;SDS011;38537;47.226;39.702;2023-04-01T18:03:00;15.57;;;5.35;;
52650;SDS011;38537;47.226;39.702;2023-04-01T18:06:10;15.23;;;5.82;;
52650;SDS011;38537;47.226;39.702;2023-04-01T18:11:49;15.05;;;5.65;;
52650;SDS011;38537;47.226;39.702;2023-04-01T18:17:23;15.38;;;5.90;;
52650;SDS011;38537;47.226;39.702;2023-04-01T18:20:11;12.55;;;5.45;;
52650;SDS011;38537;47.226;39.702;2023-04-01T18:25:28;15.10;;;5.30;;
52650;SDS011;38537;47.226;39.702;2023-04-01T18:30:56;16.55;;;6.07;;
52650;SDS011;38537;47.226;39.702;2023-04-01T18:33:42;11.23;;;5.07;;
52650;SDS011;38537;47.226;39.702;2023-04-01T18:36:23;11.52;;;6.07;;
52650;SDS011;38537;47.226;39.702;2023-04-01T18:38:56;13.00;;;5.38;;
52650;SDS011;38537;47.226;39.702;2023-04-01T18:56:06;15.80;;;6.50;;
52650;SDS011;38537;47.226;39.702;2023-04-01T18:58:48;10.68;;;5.88;;
52650;SDS011;38537;47.226;39.702;2023-04-01T19:01:28;9.60;;;5.68;;
52650;SDS011;38537;47.226;39.702;2023-04-01T19:04:14;12.15;;;5.65;;
52650;SDS011;38537;47.226;39.702;2023-04-01T19:07:01;18.67;;;5.68;;
52650;SDS011;38537;47.226;39.702;2023-04-01T19:09:50;10.30;;;5.10;;
52650;SDS011;38537;47.226;39.702;2023-04-01T19:12:27;11.13;;;5.10;;
52650;SDS011;38537;47.226;39.702;2023-04-01T19:21:21;11.45;;;5.45;;
52650;SDS011;38537;47.226;39.702;2023-04-01T19:27:02;8.15;;;4.70;;
52650;SDS011;38537;47.226;39.702;2023-04-01T19:40:47;9.40;;;4.60;;
52650;SDS011;38537;47.226;39.702;2023-04-01T19:43:22;8.18;;;4.55;;
52650;SDS011;38537;47.226;39.702;2023-04-01T19:46:14;6.10;;;4.40;;
52650;SDS011;38537;47.226;39.702;2023-04-01T19:49:04;18.67;;;5.10;;
52650;SDS011;38537;47.226;39.702;2023-04-01T19:55:15;7.75;;;4.15;;
52650;SDS011;38537;47.226;39.702;2023-04-01T19:58:08;7.13;;;4.15;;
52650;SDS011;38537;47.226;39.702;2023-04-01T20:00:53;8.40;;;4.25;;
52650;SDS011;38537;47.226;39.702;2023-04-01T20:03:45;9.23;;;4.40;;
52650;SDS011;38537;47.226;39.702;2023-04-01T20:06:32;7.20;;;4.03;;
52650;SDS011;38537;47.226;39.702;2023-04-01T20:12:01;5.75;;;3.63;;
52650;SDS011;38537;47.226;39.702;2023-04-01T20:14:40;8.52;;;3.90;;
52650;SDS011;38537;47.226;39.702;2023-04-01T20:27:58;9.50;;;3.80;;
52650;SDS011;38537;47.226;39.702;2023-04-01T20:44:14;5.72;;;3.38;;
52650;SDS011;38537;47.226;39.702;2023-04-01T20:54:52;5.07;;;3.67;;
52650;SDS011;38537;47.226;39.702;2023-04-01T21:00:49;4.93;;;3.10;;
52650;SDS011;38537;47.226;39.702;2023-04-01T21:06:29;4.40;;;3.10;;
52650;SDS011;38537;47.226;39.702;2023-04-01T21:09:38;4.88;;;3.30;;
52650;SDS011;38537;47.226;39.702;2023-04-01T21:12:26;5.80;;;3.25;;
52650;SDS011;38537;47.226;39.702;2023-04-01T21:20:58;11.98;;;7.40;;
52650;SDS011;38537;47.226;39.702;2023-04-01T21:29:23;7.28;;;3.10;;
52650;SDS011;38537;47.226;39.702;2023-04-01T21:32:17;4.95;;;3.10;;
52650;SDS011;38537;47.226;39.702;2023-04-01T21:35:06;3.60;;;2.65;;
52650;SDS011;38537;47.226;39.702;2023-04-01T21:41:11;3.58;;;2.80;;
52650;SDS011;38537;47.226;39.702;2023-04-01T22:03:40;4.13;;;2.83;;
52650;SDS011;38537;47.226;39.702;2023-04-01T22:12:40;3.00;;;2.42;;
52650;SDS011;38537;47.226;39.702;2023-04-01T22:17:58;4.07;;;2.72;;
52650;SDS011;38537;47.226;39.702;2023-04-01T22:23:59;3.78;;;2.80;;
52650;SDS011;38537;47.226;39.702;2023-04-01T22:26:53;3.50;;;2.58;;
52650;SDS011;38537;47.226;39.702;2023-04-01T22:32:31;3.65;;;2.50;;
52650;SDS011;38537;47.226;39.702;2023-04-01T22:35:27;3.03;;;2.50;;
52650;SDS011;38537;47.226;39.702;2023-04-01T22:44:00;3.88;;;2.40;;
52650;SDS011;38537;47.226;39.702;2023-04-01T22:49:25;5.30;;;2.70;;
52650;SDS011;38537;47.226;39.702;2023-04-01T22:51:59;3.42;;;2.53;;
52650;SDS011;38537;47.226;39.702;2023-04-01T22:54:42;3.03;;;2.60;;
52650;SDS011;38537;47.226;39.702;2023-04-01T22:57:32;4.43;;;2.40;;
52650;SDS011;38537;47.226;39.702;2023-04-01T23:00:43;2.90;;;2.08;;
52650;SDS011;38537;47.226;39.702;2023-04-01T23:03:32;3.22;;;2.40;;
52650;SDS011;38537;47.226;39.702;2023-04-01T23:06:04;2.47;;;2.28;;
52650;SDS011;38537;47.226;39.702;2023-04-01T23:16:54;4.15;;;2.40;;
52650;SDS011;38537;47.226;39.702;2023-04-01T23:22:24;4.68;;;2.47;;
52650;SDS011;38537;47.226;39.702;2023-04-01T23:33:30;4.10;;;2.13;;
52650;SDS011;38537;47.226;39.702;2023-04-01T23:35:58;3.55;;;2.13;;
52650;SDS011;38537;47.226;39.702;2023-04-01T23:38:35;2.22;;;2.00;;
52650;SDS011;38537;47.226;39.702;2023-04-01T23:41:06;3.30;;;2.10;;
52650;SDS011;38537;47.226;39.702;2023-04-01T23:43:38;4.72;;;2.40;;
52650;SDS011;38537;47.226;39.702;2023-04-01T23:46:08;3.03;;;2.40;;
52650;SDS011;38537;47.226;39.702;2023-04-01T23:48:36;2.33;;;1.90;;
52650;SDS011;38537;47.226;39.702;2023-04-01T23:51:28;3.30;;;2.10;;
52650;SDS011;38537;47.226;39.702;2023-04-01T23:54:01;3.72;;;2.10;;
52650;SDS011;38537;47.226;39.702;2023-04-01T23:56:42;2.78;;;2.00;;
52650;SDS011;38537;47.226;39.702;2023-04-01T23:59:16;4.68;;;2.20;;
